Time;durP1;ratioP1;P1;durP2;ratioP2;P2;SDS_P1;SDS_P2;PMS_P1;PMS_P2;Temp;Humidity;BMP_temperature;BMP_pressure;BME280_temperature;BME280_humidity;BME280_pressure;Samples;Min_cycle;Max_cycle;Signal;HPM_P1;HPM_P2
2023/11/09 00:01:37;;;;;;;1.30;1.10;;;9.80;99.90;;;;;;5070681;28;20306;-70
2023/11/09 00:04:03;;;;;;;1.80;1.20;;;9.90;99.90;;;;;;5070920;28;20920;-70
2023/11/09 00:06:29;;;;;;;1.50;1.10;;;9.90;99.90;;;;;;5074547;28;20406;-70
2023/11/09 00:08:54;;;;;;;1.20;1.03;;;9.80;99.90;;;;;;5074758;28;21000;-70
2023/11/09 00:11:20;;;;;;;1.43;1.00;;;9.90;99.90;;;;;;5056917;28;20174;-70
2023/11/09 00:13:46;;;;;;;1.30;1.20;;;9.80;99.90;;;;;;5074590;28;20200;-70
2023/11/09 00:16:14;;;;;;;1.60;1.20;;;9.90;99.90;;;;;;5074829;28;20249;-70
2023/11/09 00:18:40;;;;;;;2.80;1.00;;;9.90;99.90;;;;;;5074605;28;20420;-70
2023/11/09 00:21:05;;;;;;;1.40;1.20;;;10.00;99.90;;;;;;5074637;28;20436;-70
2023/11/09 00:23:32;;;;;;;1.13;0.93;;;10.10;99.90;;;;;;5074446;28;20269;-70
2023/11/09 00:25:58;;;;;;;3.57;1.50;;;10.00;99.90;;;;;;5056720;28;20179;-71
2023/11/09 00:28:24;;;;;;;1.00;0.90;;;10.00;99.90;;;;;;5074234;28;20439;-70
2023/11/09 00:30:50;;;;;;;1.30;1.17;;;10.10;99.90;;;;;;5074519;28;20459;-70
2023/11/09 00:33:16;;;;;;;2.87;1.37;;;10.10;99.90;;;;;;5074236;28;20440;-71
2023/11/09 00:35:43;;;;;;;1.27;0.80;;;10.10;99.90;;;;;;5074359;28;20162;-69
2023/11/09 00:38:14;;;;;;;2.07;1.00;;;10.10;99.90;;;;;;5074390;28;20213;-70
2023/11/09 00:40:40;;;;;;;2.10;0.97;;;10.10;99.90;;;;;;5074287;28;20440;-70
2023/11/09 00:43:06;;;;;;;3.03;1.30;;;10.20;99.90;;;;;;5073941;28;20427;-70
2023/11/09 00:45:34;;;;;;;1.33;1.10;;;10.20;99.90;;;;;;5074180;28;20404;-70
2023/11/09 00:48:03;;;;;;;2.10;1.33;;;10.30;99.90;;;;;;5074169;28;20267;-70
2023/11/09 00:50:29;;;;;;;1.50;1.00;;;10.20;99.90;;;;;;5074093;28;20958;-70
2023/11/09 00:52:54;;;;;;;1.20;0.97;;;10.20;99.90;;;;;;5073818;28;20515;-70
2023/11/09 00:55:20;;;;;;;2.20;1.17;;;10.30;99.90;;;;;;5074108;28;20177;-70
2023/11/09 00:57:45;;;;;;;1.40;1.20;;;10.20;99.90;;;;;;5073714;28;20186;-70
2023/11/09 01:00:11;;;;;;;1.10;1.00;;;10.30;99.90;;;;;;5073954;28;20190;-70
2023/11/09 01:02:38;;;;;;;3.07;0.90;;;10.30;99.90;;;;;;5073470;28;20190;-69
2023/11/09 01:05:07;;;;;;;1.23;0.90;;;10.30;99.90;;;;;;5055887;28;20405;-70
2023/11/09 01:07:33;;;;;;;1.30;1.20;;;10.20;99.90;;;;;;5073712;28;20404;-70
2023/11/09 01:09:59;;;;;;;1.53;0.90;;;10.20;99.90;;;;;;5073721;28;20415;-70
2023/11/09 01:12:25;;;;;;;1.00;0.83;;;10.20;99.90;;;;;;5073717;28;20499;-70
2023/11/09 01:14:52;;;;;;;1.30;1.00;;;10.20;99.90;;;;;;5073463;28;20491;-70
2023/11/09 01:17:18;;;;;;;3.13;1.10;;;10.30;99.90;;;;;;5073163;28;20405;-70
2023/11/09 01:19:43;;;;;;;1.00;0.80;;;10.30;99.90;;;;;;5073374;28;20566;-69
2023/11/09 01:22:09;;;;;;;1.27;0.87;;;10.30;99.90;;;;;;5073545;28;20162;-69
2023/11/09 01:24:35;;;;;;;1.40;1.17;;;10.40;99.90;;;;;;5073262;28;20217;-69
2023/11/09 01:27:00;;;;;;;2.10;1.30;;;10.50;99.90;;;;;;5073418;28;20162;-69
2023/11/09 01:29:26;;;;;;;1.10;1.00;;;10.50;99.90;;;;;;5073269;28;20987;-69
2023/11/09 01:31:54;;;;;;;2.30;1.00;;;10.50;99.90;;;;;;5073312;28;20170;-69
2023/11/09 01:34:20;;;;;;;1.00;0.87;;;10.60;99.90;;;;;;5055213;28;20167;-69
2023/11/09 01:36:46;;;;;;;1.00;0.90;;;10.50;99.90;;;;;;5073275;28;20411;-69
2023/11/09 01:39:12;;;;;;;1.77;1.00;;;10.50;99.90;;;;;;5072798;28;20429;-69
2023/11/09 01:41:38;;;;;;;0.90;0.73;;;10.40;99.90;;;;;;5072995;28;20170;-69
2023/11/09 01:44:04;;;;;;;2.50;0.83;;;10.50;99.90;;;;;;5072800;28;20423;-70
2023/11/09 01:46:31;;;;;;;1.87;0.80;;;10.50;99.90;;;;;;5072993;28;20405;-70
2023/11/09 01:48:58;;;;;;;2.53;1.13;;;10.50;99.90;;;;;;5072775;28;20417;-69
2023/11/09 01:51:24;;;;;;;1.90;0.97;;;10.60;99.90;;;;;;5072963;28;20432;-70
2023/11/09 01:53:51;;;;;;;1.20;0.93;;;10.60;99.90;;;;;;5072612;28;20428;-69
2023/11/09 01:56:18;;;;;;;1.83;0.90;;;10.60;99.90;;;;;;5072852;28;20401;-69
2023/11/09 01:58:45;;;;;;;1.50;0.90;;;10.70;99.90;;;;;;5072594;28;20424;-69
2023/11/09 02:01:13;;;;;;;1.20;1.10;;;10.70;99.90;;;;;;5072584;28;20440;-69
2023/11/09 02:03:42;;;;;;;2.53;0.70;;;10.60;99.90;;;;;;5072554;28;20515;-69
2023/11/09 02:06:09;;;;;;;1.30;0.83;;;10.60;99.90;;;;;;5072384;28;20915;-69
2023/11/09 02:08:36;;;;;;;4.40;0.90;;;10.60;99.90;;;;;;5072486;28;20439;-69
2023/11/09 02:11:02;;;;;;;1.63;0.87;;;10.60;99.90;;;;;;5072431;28;20413;-69
2023/11/09 02:13:27;;;;;;;1.00;0.83;;;10.60;99.90;;;;;;5072295;28;20404;-70
2023/11/09 02:15:55;;;;;;;1.07;0.80;;;10.50;99.90;;;;;;5072264;28;20879;-69
2023/11/09 02:18:21;;;;;;;1.30;0.80;;;10.60;99.90;;;;;;5072370;28;20182;-70
2023/11/09 02:20:51;;;;;;;3.10;0.77;;;10.60;99.90;;;;;;5072348;28;20550;-70
2023/11/09 02:23:20;;;;;;;1.30;0.90;;;10.70;99.90;;;;;;5054432;28;20828;-70
2023/11/09 02:25:46;;;;;;;2.27;1.27;;;10.70;99.90;;;;;;5072261;28;20411;-69
2023/11/09 02:28:14;;;;;;;0.90;0.80;;;10.70;99.90;;;;;;5071537;28;20420;-70
2023/11/09 02:30:39;;;;;;;1.23;0.83;;;10.70;99.90;;;;;;5054245;28;20919;-70
2023/11/09 02:33:08;;;;;;;0.80;0.80;;;10.70;99.90;;;;;;5072046;28;20405;-69
2023/11/09 02:35:33;;;;;;;1.23;0.90;;;10.70;99.90;;;;;;5072126;28;20170;-69
2023/11/09 02:37:59;;;;;;;1.40;0.90;;;10.70;99.90;;;;;;5072117;28;20431;-70
2023/11/09 02:40:25;;;;;;;1.10;0.67;;;10.80;99.90;;;;;;5072025;28;20189;-69
2023/11/09 02:42:50;;;;;;;1.30;0.80;;;10.80;99.90;;;;;;5071739;28;20170;-70
2023/11/09 02:45:15;;;;;;;0.80;0.60;;;10.80;99.90;;;;;;5072128;28;20166;-70
2023/11/09 02:47:41;;;;;;;1.10;1.00;;;10.90;99.90;;;;;;5071967;28;20166;-70
2023/11/09 02:50:07;;;;;;;0.90;0.60;;;10.90;99.90;;;;;;5072072;28;20166;-70
2023/11/09 02:52:32;;;;;;;1.00;0.90;;;10.90;99.90;;;;;;5071762;28;20200;-70
2023/11/09 02:54:59;;;;;;;1.10;0.60;;;10.90;99.90;;;;;;5071779;28;20201;-70
2023/11/09 02:57:27;;;;;;;2.07;0.60;;;11.00;99.90;;;;;;5071957;28;20279;-70
2023/11/09 02:59:54;;;;;;;1.00;0.70;;;11.10;99.90;;;;;;5071816;28;20475;-70
2023/11/09 03:02:20;;;;;;;1.03;0.77;;;11.10;99.90;;;;;;5071687;28;20419;-70
2023/11/09 03:04:47;;;;;;;2.90;0.70;;;11.00;99.90;;;;;;5071612;28;20404;-70
2023/11/09 03:07:18;;;;;;;0.80;0.70;;;11.10;99.90;;;;;;5071874;28;20401;-69
2023/11/09 03:09:44;;;;;;;1.00;0.70;;;11.20;99.90;;;;;;5071691;28;20907;-70
2023/11/09 03:12:10;;;;;;;1.13;0.77;;;11.20;99.90;;;;;;5071762;28;20416;-70
2023/11/09 03:14:36;;;;;;;0.80;0.53;;;11.30;99.90;;;;;;5071588;28;20912;-70
2023/11/09 03:17:06;;;;;;;1.00;0.60;;;11.30;99.90;;;;;;5071756;28;20556;-70
2023/11/09 03:19:32;;;;;;;0.80;0.67;;;11.30;99.90;;;;;;5071741;28;20427;-70
2023/11/09 03:21:58;;;;;;;0.80;0.60;;;11.30;99.90;;;;;;5053734;28;20459;-70
2023/11/09 03:24:24;;;;;;;0.90;0.63;;;11.20;99.90;;;;;;5071378;28;20782;-70
2023/11/09 03:26:49;;;;;;;0.90;0.60;;;11.30;99.90;;;;;;5071624;28;20173;-69
2023/11/09 03:29:14;;;;;;;0.90;0.70;;;11.30;99.90;;;;;;5071467;28;20273;-70
2023/11/09 03:31:40;;;;;;;1.00;0.67;;;11.30;99.90;;;;;;5071468;28;20168;-70
2023/11/09 03:34:06;;;;;;;0.70;0.53;;;11.20;99.90;;;;;;5071412;28;20170;-70
2023/11/09 03:36:31;;;;;;;0.80;0.57;;;11.20;99.90;;;;;;5071518;28;20212;-70
2023/11/09 03:38:57;;;;;;;0.80;0.60;;;11.20;99.90;;;;;;5072460;28;20232;-70
2023/11/09 03:41:25;;;;;;;0.70;0.50;;;11.30;99.90;;;;;;5075419;28;20664;-70
2023/11/09 03:43:50;;;;;;;0.90;0.60;;;11.20;99.90;;;;;;5075254;28;20158;-70
2023/11/09 03:46:16;;;;;;;1.40;0.70;;;11.20;99.90;;;;;;5075437;28;20411;-70
2023/11/09 03:48:41;;;;;;;3.10;0.80;;;11.20;99.90;;;;;;5075229;28;20178;-70
2023/11/09 03:51:07;;;;;;;1.00;0.77;;;11.20;99.90;;;;;;5075255;28;20170;-70
2023/11/09 03:53:33;;;;;;;1.07;0.57;;;11.20;99.90;;;;;;5074489;28;20555;-70
2023/11/09 03:55:58;;;;;;;0.80;0.50;;;11.20;99.90;;;;;;5075239;28;20408;-70
2023/11/09 03:58:24;;;;;;;1.10;0.60;;;11.20;99.90;;;;;;5075043;28;20661;-70
2023/11/09 04:00:49;;;;;;;0.83;0.60;;;11.20;99.90;;;;;;5075001;28;20209;-70
2023/11/09 04:03:15;;;;;;;1.00;0.67;;;11.20;99.90;;;;;;5074892;28;20166;-70
2023/11/09 04:05:41;;;;;;;0.80;0.70;;;11.20;99.90;;;;;;5075092;28;20534;-69
2023/11/09 04:08:06;;;;;;;1.10;0.90;;;11.20;99.90;;;;;;5074778;28;20186;-70
2023/11/09 04:10:32;;;;;;;1.00;0.70;;;11.20;99.90;;;;;;5074906;28;20167;-70
2023/11/09 04:12:57;;;;;;;0.80;0.60;;;11.10;99.90;;;;;;5074022;28;20178;-70
2023/11/09 04:15:23;;;;;;;0.87;0.73;;;11.10;99.90;;;;;;5074337;28;20627;-70
2023/11/09 04:17:48;;;;;;;0.90;0.70;;;11.10;99.90;;;;;;5074706;28;20190;-70
2023/11/09 04:20:16;;;;;;;1.13;0.77;;;11.20;99.90;;;;;;5074588;28;20198;-70
2023/11/09 04:22:43;;;;;;;0.90;0.60;;;11.10;99.90;;;;;;5074361;28;20245;-70
2023/11/09 04:25:09;;;;;;;0.70;0.50;;;11.10;99.90;;;;;;5074649;28;20426;-70
2023/11/09 04:27:36;;;;;;;0.80;0.60;;;11.10;99.90;;;;;;5074511;28;20401;-70
2023/11/09 04:30:03;;;;;;;1.73;0.60;;;11.10;99.90;;;;;;5074473;28;20483;-70
2023/11/09 04:32:29;;;;;;;2.07;0.60;;;11.10;99.90;;;;;;5074564;28;20400;-70
2023/11/09 04:34:55;;;;;;;0.70;0.50;;;11.00;99.90;;;;;;5074331;28;20408;-70
2023/11/09 04:37:21;;;;;;;0.80;0.50;;;11.00;99.90;;;;;;5074513;28;20159;-70
2023/11/09 04:39:50;;;;;;;0.90;0.70;;;11.10;99.90;;;;;;5074088;28;20484;-71
2023/11/09 04:42:19;;;;;;;0.80;0.60;;;11.10;99.90;;;;;;5074396;28;20491;-70
2023/11/09 04:44:46;;;;;;;1.33;0.70;;;11.10;99.90;;;;;;5074161;28;20438;-70
2023/11/09 04:47:13;;;;;;;0.90;0.60;;;11.20;99.90;;;;;;5074297;28;20837;-70
2023/11/09 04:49:45;;;;;;;1.20;0.63;;;11.10;99.90;;;;;;5074195;28;20424;-70
2023/11/09 04:52:16;;;;;;;1.00;0.60;;;11.20;99.90;;;;;;5073588;28;20458;-70
2023/11/09 04:54:45;;;;;;;0.70;0.50;;;11.20;99.90;;;;;;5073977;28;20927;-70
2023/11/09 05:07:52;;;;;;;2.97;2.67;;;11.10;99.90;;;;;;5073680;28;20505;-70
2023/11/09 05:10:17;;;;;;;1.67;0.83;;;11.10;99.90;;;;;;5073865;28;20412;-70
2023/11/09 05:12:43;;;;;;;0.80;0.50;;;11.10;99.90;;;;;;5073560;28;20190;-70
2023/11/09 05:15:08;;;;;;;0.80;0.60;;;11.10;99.90;;;;;;5073641;28;20257;-70
2023/11/09 05:17:34;;;;;;;0.80;0.60;;;11.00;99.90;;;;;;5073633;28;20185;-70
2023/11/09 05:20:00;;;;;;;0.80;0.60;;;11.00;99.90;;;;;;5073546;28;20851;-70
2023/11/09 05:22:26;;;;;;;1.60;0.63;;;10.90;99.90;;;;;;5073526;28;20170;-70
2023/11/09 05:24:52;;;;;;;0.70;0.50;;;10.80;99.90;;;;;;5073304;28;20159;-70
2023/11/09 05:27:19;;;;;;;1.20;0.60;;;10.70;99.90;;;;;;5073456;28;20428;-70
2023/11/09 05:29:46;;;;;;;1.03;0.60;;;10.60;99.90;;;;;;5073318;28;20481;-70
2023/11/09 05:32:13;;;;;;;0.90;0.60;;;10.60;99.90;;;;;;5073376;28;20408;-70
2023/11/09 05:34:39;;;;;;;0.80;0.50;;;10.50;99.90;;;;;;5073173;28;20491;-70
2023/11/09 05:37:05;;;;;;;0.80;0.60;;;10.40;99.90;;;;;;5073241;28;20504;-70
2023/11/09 05:39:32;;;;;;;0.90;0.60;;;10.30;99.90;;;;;;5073009;28;20261;-70
2023/11/09 05:41:59;;;;;;;1.00;0.60;;;10.20;99.90;;;;;;5073020;28;20443;-70
2023/11/09 05:44:25;;;;;;;2.10;0.70;;;10.30;99.90;;;;;;5055099;28;20485;-70
2023/11/09 05:46:50;;;;;;;0.70;0.60;;;10.30;99.90;;;;;;5073216;28;20416;-70
2023/11/09 05:49:16;;;;;;;2.87;1.00;;;10.20;99.90;;;;;;5072877;28;20424;-70
2023/11/09 05:51:44;;;;;;;0.80;0.60;;;10.30;99.90;;;;;;5073067;28;20182;-70
2023/11/09 05:54:09;;;;;;;0.80;0.60;;;10.30;99.90;;;;;;5072742;28;20188;-70
2023/11/09 05:56:35;;;;;;;0.90;0.80;;;10.20;99.90;;;;;;5072756;28;20874;-70
2023/11/09 05:59:00;;;;;;;0.70;0.57;;;10.20;99.90;;;;;;5072782;28;20194;-70
2023/11/09 06:01:30;;;;;;;1.10;0.67;;;10.20;99.90;;;;;;5072812;28;20281;-70
2023/11/09 06:03:56;;;;;;;0.80;0.70;;;10.20;99.90;;;;;;5072526;28;20167;-70
2023/11/09 06:06:22;;;;;;;1.50;0.80;;;10.20;99.90;;;;;;5072736;28;20867;-70
2023/11/09 06:08:49;;;;;;;0.80;0.60;;;10.20;99.90;;;;;;5072403;28;20499;-70
2023/11/09 06:11:15;;;;;;;1.17;0.63;;;10.20;99.90;;;;;;5072600;28;20201;-70
2023/11/09 06:13:41;;;;;;;1.13;0.80;;;10.20;99.90;;;;;;5072379;28;20407;-70
2023/11/09 06:16:07;;;;;;;0.80;0.50;;;10.30;99.90;;;;;;5072425;28;20408;-70
2023/11/09 06:18:33;;;;;;;1.13;0.60;;;10.30;99.90;;;;;;5072414;28;20273;-70
2023/11/09 06:21:00;;;;;;;1.03;0.60;;;10.40;99.90;;;;;;5072485;28;21202;-70
2023/11/09 06:23:29;;;;;;;1.27;0.67;;;10.40;99.90;;;;;;5072120;28;20168;-70
2023/11/09 06:25:55;;;;;;;1.90;0.80;;;10.40;99.90;;;;;;5072398;28;20811;-70
2023/11/09 06:28:24;;;;;;;1.30;0.60;;;10.40;99.90;;;;;;5072264;28;20482;-70
2023/11/09 06:30:51;;;;;;;1.90;0.60;;;10.50;99.90;;;;;;5072347;28;20962;-70
2023/11/09 06:33:17;;;;;;;1.00;0.90;;;10.60;99.90;;;;;;5072005;28;20918;-70
2023/11/09 06:35:45;;;;;;;1.17;0.70;;;10.60;99.90;;;;;;5072250;28;20408;-70
2023/11/09 06:38:10;;;;;;;0.70;0.50;;;10.50;99.90;;;;;;5072364;28;20907;-70
2023/11/09 06:40:36;;;;;;;2.10;0.70;;;10.40;99.90;;;;;;5072012;28;20456;-70
2023/11/09 06:43:02;;;;;;;0.80;0.60;;;10.50;99.90;;;;;;5072025;28;20166;-70
2023/11/09 06:45:27;;;;;;;1.33;0.83;;;10.50;99.90;;;;;;5054183;28;20412;-70
2023/11/09 06:47:53;;;;;;;0.80;0.60;;;10.50;99.90;;;;;;5072019;28;20691;-70
2023/11/09 06:50:19;;;;;;;1.00;0.70;;;10.50;99.90;;;;;;5071943;28;20587;-70
2023/11/09 06:52:45;;;;;;;2.13;0.80;;;10.60;99.90;;;;;;5071663;28;20919;-70
2023/11/09 06:55:15;;;;;;;1.73;0.90;;;10.60;99.90;;;;;;5072031;28;20174;-70
2023/11/09 06:57:42;;;;;;;1.20;0.60;;;10.70;99.90;;;;;;5054014;28;20420;-70
2023/11/09 07:00:11;;;;;;;1.00;0.70;;;10.80;99.90;;;;;;5071871;28;20471;-70
2023/11/09 07:02:38;;;;;;;1.13;0.80;;;10.80;99.90;;;;;;5071743;28;20408;-70
2023/11/09 07:05:05;;;;;;;0.80;0.60;;;10.80;99.90;;;;;;5071618;28;20476;-70
2023/11/09 07:07:31;;;;;;;0.90;0.60;;;10.70;99.90;;;;;;5071332;28;20496;-70
2023/11/09 07:09:58;;;;;;;0.80;0.60;;;10.80;99.90;;;;;;5071795;28;20491;-70
2023/11/09 07:12:25;;;;;;;0.80;0.60;;;10.90;99.90;;;;;;5071796;28;20264;-70
2023/11/09 07:14:51;;;;;;;0.80;0.60;;;10.90;99.90;;;;;;5071132;28;20411;-70
2023/11/09 07:17:17;;;;;;;2.63;0.73;;;10.90;99.90;;;;;;5071687;28;20400;-70
2023/11/09 07:19:47;;;;;;;1.00;0.70;;;11.00;99.90;;;;;;5071471;28;20854;-70
2023/11/09 07:22:16;;;;;;;0.80;0.60;;;11.10;99.90;;;;;;5071712;28;20770;-70
2023/11/09 07:24:43;;;;;;;0.70;0.50;;;11.10;99.90;;;;;;5071492;28;20473;-70
2023/11/09 07:27:09;;;;;;;0.80;0.60;;;11.10;99.90;;;;;;5071712;28;20914;-70
2023/11/09 07:29:36;;;;;;;0.90;0.77;;;11.10;99.90;;;;;;5071539;28;20505;-70
2023/11/09 07:32:02;;;;;;;1.10;0.70;;;11.20;99.90;;;;;;5053652;28;20764;-70
2023/11/09 07:34:30;;;;;;;0.80;0.60;;;11.20;99.90;;;;;;5071246;28;20408;-70
2023/11/09 07:36:56;;;;;;;1.37;0.83;;;11.20;99.90;;;;;;5071267;28;20597;-70
2023/11/09 07:39:24;;;;;;;4.20;0.70;;;11.20;99.90;;;;;;5053220;28;20428;-69
2023/11/09 07:41:50;;;;;;;0.90;0.63;;;11.30;99.90;;;;;;5071358;28;20397;-70
2023/11/09 07:44:16;;;;;;;0.80;0.53;;;11.40;99.90;;;;;;5071037;28;20400;-70
2023/11/09 07:46:42;;;;;;;0.80;0.60;;;11.40;99.90;;;;;;5071463;28;20392;-70
2023/11/09 07:49:10;;;;;;;1.53;0.97;;;11.40;99.90;;;;;;5071080;28;20491;-70
2023/11/09 07:51:37;;;;;;;0.97;0.70;;;11.50;99.90;;;;;;5071414;28;20173;-70
2023/11/09 07:54:07;;;;;;;0.87;0.60;;;11.50;99.90;;;;;;5071292;28;20420;-70
2023/11/09 07:56:33;;;;;;;0.90;0.73;;;11.60;99.90;;;;;;5071113;28;20404;-70
2023/11/09 07:58:59;;;;;;;0.97;0.60;;;11.60;99.90;;;;;;5071314;28;20489;-70
2023/11/09 08:01:24;;;;;;;1.77;0.73;;;11.60;99.90;;;;;;5082142;28;20233;-70
2023/11/09 08:03:51;;;;;;;0.70;0.60;;;11.70;99.90;;;;;;5091198;28;20173;-69
2023/11/09 08:06:17;;;;;;;0.90;0.60;;;11.70;99.90;;;;;;5091219;28;20196;-70
2023/11/09 08:08:44;;;;;;;0.70;0.50;;;11.70;99.90;;;;;;5091489;28;20418;-70
2023/11/09 08:11:10;;;;;;;0.70;0.50;;;11.70;99.90;;;;;;5091131;28;20422;-70
2023/11/09 08:13:36;;;;;;;0.70;0.50;;;11.70;99.90;;;;;;5091234;28;20411;-70
2023/11/09 08:16:06;;;;;;;0.70;0.50;;;11.70;99.90;;;;;;5090923;28;20419;-70
2023/11/09 08:18:32;;;;;;;0.80;0.60;;;11.80;99.90;;;;;;5090862;28;20514;-70
2023/11/09 08:20:57;;;;;;;1.10;0.70;;;11.70;99.90;;;;;;5090953;28;20447;-70
2023/11/09 08:23:23;;;;;;;1.00;0.70;;;11.80;99.90;;;;;;5090922;28;20482;-70
2023/11/09 08:25:49;;;;;;;1.33;0.83;;;11.70;99.90;;;;;;5091682;28;20173;-69
2023/11/09 08:28:16;;;;;;;1.33;1.00;;;11.70;99.90;;;;;;5094727;28;20420;-70
2023/11/09 08:30:43;;;;;;;8.10;2.00;;;11.70;99.90;;;;;;5085095;28;20590;-70
2023/11/09 08:33:09;;;;;;;1.57;0.97;;;11.50;99.90;;;;;;5056434;28;20518;-70
2023/11/09 08:35:35;;;;;;;4.00;1.40;;;11.50;99.90;;;;;;5074337;28;20418;-70
2023/11/09 08:38:01;;;;;;;3.53;1.67;;;11.50;99.90;;;;;;5074364;28;20507;-70
2023/11/09 08:40:30;;;;;;;3.47;1.67;;;11.50;99.90;;;;;;5074354;28;20927;-70
2023/11/09 08:42:57;;;;;;;2.80;1.33;;;11.40;99.90;;;;;;5074092;28;20858;-69
2023/11/09 08:45:24;;;;;;;1.50;1.10;;;11.40;99.90;;;;;;5074564;28;20408;-68
2023/11/09 08:47:50;;;;;;;3.37;1.30;;;11.10;99.90;;;;;;5074231;28;20421;-70
2023/11/09 08:50:16;;;;;;;6.87;1.97;;;11.10;99.90;;;;;;5074339;28;20930;-71
2023/11/09 08:52:43;;;;;;;3.83;1.50;;;11.10;99.90;;;;;;5055714;28;20454;-68
2023/11/09 08:55:09;;;;;;;2.33;1.10;;;11.00;99.90;;;;;;5074263;28;20401;-68
2023/11/09 08:57:39;;;;;;;3.03;1.37;;;10.90;99.90;;;;;;5074064;28;20412;-69
2023/11/09 09:00:12;;;;;;;2.80;1.63;;;10.90;99.90;;;;;;5073950;28;20440;-68
2023/11/09 09:02:48;;;;;;;5.33;1.90;;;10.90;99.90;;;;;;5074078;28;20405;-69
2023/11/09 09:05:20;;;;;;;3.87;1.83;;;10.90;99.90;;;;;;5073650;28;20408;-69
2023/11/09 09:07:49;;;;;;;5.17;2.03;;;10.90;99.90;;;;;;5073839;28;20462;-68
2023/11/09 09:10:20;;;;;;;2.63;1.40;;;10.90;99.90;;;;;;5073580;28;20923;-68
2023/11/09 09:12:47;;;;;;;3.87;1.93;;;10.80;99.90;;;;;;5073537;28;20408;-68
2023/11/09 09:15:16;;;;;;;1.80;1.10;;;10.70;99.90;;;;;;5073734;28;20403;-68
2023/11/09 09:17:49;;;;;;;13.17;1.80;;;10.70;99.90;;;;;;5073860;28;20404;-69
2023/11/09 09:20:22;;;;;;;4.73;1.30;;;10.70;99.90;;;;;;5055902;28;20989;-69
2023/11/09 09:22:59;;;;;;;5.27;1.73;;;10.70;99.90;;;;;;5073420;28;20906;-69
2023/11/09 09:25:25;;;;;;;3.57;2.13;;;10.60;99.90;;;;;;5072960;28;20388;-68
2023/11/09 09:27:51;;;;;;;2.27;1.47;;;10.70;99.90;;;;;;5073599;28;20439;-68
2023/11/09 09:30:19;;;;;;;7.10;1.80;;;10.70;99.90;;;;;;5073325;28;20165;-68
2023/11/09 09:32:46;;;;;;;2.47;1.50;;;10.70;99.90;;;;;;5073249;28;20534;-69
2023/11/09 09:35:12;;;;;;;4.03;1.67;;;10.90;99.90;;;;;;5073412;28;20436;-68
2023/11/09 09:37:39;;;;;;;4.37;1.57;;;11.20;99.90;;;;;;5054784;28;20467;-68
2023/11/09 09:40:06;;;;;;;12.53;3.33;;;11.30;99.90;;;;;;5073186;28;20436;-69
2023/11/09 09:42:33;;;;;;;6.20;1.70;;;11.30;99.90;;;;;;5073032;28;20421;-68
2023/11/09 09:44:59;;;;;;;2.87;1.50;;;11.40;99.90;;;;;;5072978;28;20447;-69
2023/11/09 09:47:25;;;;;;;2.93;1.17;;;11.60;99.90;;;;;;5073032;28;20429;-69
2023/11/09 09:49:53;;;;;;;6.83;1.60;;;11.70;99.90;;;;;;5072819;28;20588;-70
2023/11/09 09:52:21;;;;;;;5.60;1.47;;;11.90;99.90;;;;;;5073234;28;20491;-69
2023/11/09 09:54:48;;;;;;;3.10;1.47;;;12.00;99.90;;;;;;5072850;28;20423;-68
2023/11/09 09:57:15;;;;;;;4.93;2.10;;;12.10;99.90;;;;;;5072846;28;20930;-68
2023/11/09 09:59:42;;;;;;;3.20;1.30;;;12.10;99.90;;;;;;5072703;28;20420;-69
2023/11/09 10:02:12;;;;;;;8.57;2.33;;;12.20;99.90;;;;;;5072866;28;20405;-69
2023/11/09 10:04:39;;;;;;;6.00;2.33;;;12.30;99.90;;;;;;5054706;28;20439;-69
2023/11/09 10:07:05;;;;;;;1.73;1.60;;;12.20;99.90;;;;;;5072789;28;20506;-69
2023/11/09 10:09:31;;;;;;;6.13;1.63;;;12.20;99.90;;;;;;5072187;28;20807;-69
2023/11/09 10:11:56;;;;;;;6.30;1.60;;;12.20;99.90;;;;;;5072591;28;20404;-69
2023/11/09 10:14:24;;;;;;;3.33;2.13;;;12.00;99.90;;;;;;5072281;28;20918;-69
2023/11/09 10:16:49;;;;;;;3.60;1.47;;;12.00;99.90;;;;;;5072539;28;20162;-70
2023/11/09 10:19:17;;;;;;;4.13;1.97;;;12.00;99.90;;;;;;5072259;28;20429;-69
2023/11/09 10:21:44;;;;;;;3.40;1.90;;;11.90;99.90;;;;;;5072409;28;20201;-69
2023/11/09 10:24:14;;;;;;;2.57;1.40;;;11.90;99.90;;;;;;5072493;28;20428;-69
2023/11/09 10:26:42;;;;;;;6.83;2.07;;;11.90;99.90;;;;;;5072445;28;21223;-69
2023/11/09 10:29:14;;;;;;;5.10;1.70;;;12.10;99.90;;;;;;5072142;28;20417;-69
2023/11/09 10:31:41;;;;;;;3.87;1.43;;;12.00;99.90;;;;;;5072163;28;20401;-69
2023/11/09 10:34:11;;;;;;;4.77;1.70;;;12.20;99.90;;;;;;5054428;28;20498;-69
2023/11/09 10:36:39;;;;;;;2.80;1.77;;;12.40;99.90;;;;;;5072235;28;20480;-69
2023/11/09 10:39:16;;;;;;;4.60;1.57;;;12.60;99.90;;;;;;5072104;28;20417;-69
2023/11/09 10:41:44;;;;;;;3.10;1.70;;;13.00;99.90;;;;;;5072058;28;20800;-69
2023/11/09 10:44:10;;;;;;;2.67;1.30;;;13.30;99.90;;;;;;5071788;28;20973;-70
2023/11/09 10:46:37;;;;;;;6.20;1.73;;;13.40;99.90;;;;;;5072068;28;20805;-69
2023/11/09 10:49:05;;;;;;;3.73;1.60;;;13.30;99.90;;;;;;5071517;28;20436;-69
2023/11/09 10:51:33;;;;;;;2.60;1.40;;;13.10;99.90;;;;;;5072068;28;20407;-69
2023/11/09 10:54:01;;;;;;;5.43;1.43;;;12.90;99.90;;;;;;5071698;28;20459;-69
2023/11/09 10:56:29;;;;;;;4.83;1.57;;;12.90;99.90;;;;;;5071938;28;20775;-69
2023/11/09 10:58:56;;;;;;;2.70;1.77;;;12.70;99.90;;;;;;5071812;28;20423;-70
2023/11/09 11:01:26;;;;;;;4.67;1.40;;;12.90;99.90;;;;;;5071800;28;20923;-70
2023/11/09 11:03:57;;;;;;;2.40;1.10;;;12.90;99.90;;;;;;5053764;28;20498;-69
2023/11/09 11:06:50;;;;;;;4.10;1.27;;;12.80;99.90;;;;;;5071835;28;20466;-69
2023/11/09 11:09:25;;;;;;;4.17;2.43;;;12.60;99.90;;;;;;5071707;28;20884;-69
2023/11/09 11:11:55;;;;;;;3.10;1.30;;;12.50;99.90;;;;;;5071860;28;20407;-69
2023/11/09 11:14:25;;;;;;;2.53;1.27;;;12.40;99.90;;;;;;5053588;28;20413;-69
2023/11/09 11:17:11;;;;;;;4.20;1.90;;;12.40;99.90;;;;;;5071782;28;20439;-70
2023/11/09 11:19:39;;;;;;;2.30;1.37;;;12.50;99.90;;;;;;5071874;28;20431;-69
2023/11/09 11:22:35;;;;;;;11.97;2.50;;;12.50;99.90;;;;;;5071635;28;20409;-69
2023/11/09 11:25:16;;;;;;;8.17;3.97;;;12.40;99.90;;;;;;5071528;28;20396;-70
2023/11/09 11:27:58;;;;;;;2.37;1.10;;;12.40;99.90;;;;;;5071443;28;20396;-69
2023/11/09 11:30:25;;;;;;;2.60;1.20;;;12.40;99.90;;;;;;5071569;28;20408;-69
2023/11/09 11:32:56;;;;;;;5.27;1.67;;;12.40;99.90;;;;;;5071431;28;20914;-70
2023/11/09 11:35:33;;;;;;;6.53;1.60;;;12.40;99.90;;;;;;5071676;28;20415;-69
2023/11/09 11:38:14;;;;;;;3.63;2.10;;;12.40;99.90;;;;;;5071518;28;20787;-70
2023/11/09 11:40:41;;;;;;;4.90;1.60;;;12.30;99.90;;;;;;5071284;28;20443;-69
2023/11/09 11:43:08;;;;;;;1.93;1.00;;;12.20;99.90;;;;;;5071284;28;20408;-69
2023/11/09 11:45:38;;;;;;;6.60;1.80;;;12.10;99.90;;;;;;5071329;28;20408;-69
2023/11/09 11:48:12;;;;;;;2.27;1.57;;;12.10;99.90;;;;;;5071407;28;20416;-69
2023/11/09 11:50:39;;;;;;;2.53;1.10;;;12.10;99.90;;;;;;5071392;28;20427;-69
2023/11/09 11:53:12;;;;;;;2.70;1.50;;;12.20;99.90;;;;;;5071195;28;21012;-69
2023/11/09 11:55:52;;;;;;;6.03;1.90;;;12.30;99.90;;;;;;5071465;28;20915;-69
2023/11/09 11:58:18;;;;;;;3.60;1.30;;;12.40;99.90;;;;;;5071310;28;20428;-70
2023/11/09 12:00:43;;;;;;;2.77;1.50;;;12.70;99.90;;;;;;5073668;28;20494;-69
2023/11/09 12:03:10;;;;;;;6.33;1.80;;;13.10;99.90;;;;;;5074846;28;20401;-70
2023/11/09 12:05:40;;;;;;;5.97;2.33;;;13.60;99.90;;;;;;5075186;28;20162;-70
2023/11/09 12:08:12;;;;;;;3.10;1.73;;;13.90;99.90;;;;;;5056982;28;20493;-70
2023/11/09 12:10:40;;;;;;;6.07;1.90;;;14.10;99.90;;;;;;5056982;28;20510;-70
2023/11/09 12:13:05;;;;;;;8.47;1.97;;;14.20;99.90;;;;;;5074732;28;20408;-70
2023/11/09 12:15:31;;;;;;;10.83;1.60;;;14.50;99.90;;;;;;5074913;28;20407;-70
2023/11/09 12:17:57;;;;;;;4.00;1.63;;;14.40;99.90;;;;;;5074818;28;20190;-70
2023/11/09 12:20:23;;;;;;;9.47;2.63;;;14.50;99.90;;;;;;5074735;28;20198;-70
2023/11/09 12:22:49;;;;;;;3.47;1.70;;;14.40;99.90;;;;;;5073344;28;20179;-69
2023/11/09 12:25:16;;;;;;;6.93;1.60;;;14.40;99.90;;;;;;5074699;28;20458;-68
2023/11/09 12:27:45;;;;;;;3.10;1.73;;;14.50;99.90;;;;;;5074499;28;20419;-69
2023/11/09 12:30:11;;;;;;;4.77;1.40;;;14.80;99.90;;;;;;5074536;28;20404;-69
2023/11/09 12:32:37;;;;;;;2.87;1.60;;;15.00;99.90;;;;;;5056558;28;21028;-68
2023/11/09 12:35:03;;;;;;;9.10;1.63;;;15.20;99.90;;;;;;5074516;28;20487;-68
2023/11/09 12:37:36;;;;;;;7.70;2.93;;;15.50;99.90;;;;;;5074530;28;20626;-69
2023/11/09 12:40:04;;;;;;;9.50;2.10;;;15.80;99.90;;;;;;5074378;28;20432;-69
2023/11/09 12:42:31;;;;;;;4.37;1.60;;;16.30;99.90;;;;;;5074394;28;20412;-69
2023/11/09 12:44:57;;;;;;;3.00;1.27;;;16.90;99.90;;;;;;5074169;28;20433;-69
2023/11/09 12:47:25;;;;;;;3.23;1.50;;;18.10;99.90;;;;;;5056451;28;20447;-69
2023/11/09 12:49:56;;;;;;;1.70;1.30;;;18.80;99.90;;;;;;5074159;28;20209;-69
2023/11/09 12:52:25;;;;;;;3.13;1.33;;;19.60;92.90;;;;;;5073998;28;20408;-69
2023/11/09 12:54:53;;;;;;;5.30;2.33;;;20.00;83.00;;;;;;5074110;28;20413;-69
2023/11/09 12:57:22;;;;;;;2.43;1.87;;;20.00;72.40;;;;;;5074105;28;20405;-69
2023/11/09 12:59:50;;;;;;;4.40;1.87;;;19.50;69.00;;;;;;5073921;28;21165;-69